sensor_id;sensor_type;location;lat;lon;timestamp;pressure;altitude;pressure_sealevel;temperature;humidity
74529;BME280;63009;52.584;5.932;2023-07-08T00:00:42;101899.78;;;17.22;87.53
74529;BME280;63009;52.584;5.932;2023-07-08T00:03:07;101900.00;;;17.19;87.43
74529;BME280;63009;52.584;5.932;2023-07-08T00:05:32;101891.97;;;17.19;87.84
74529;BME280;63009;52.584;5.932;2023-07-08T00:07:58;101895.38;;;17.08;88.65
74529;BME280;63009;52.584;5.932;2023-07-08T00:10:26;101896.66;;;17.03;88.57
74529;BME280;63009;52.584;5.932;2023-07-08T00:12:55;101888.22;;;16.96;88.94
74529;BME280;63009;52.584;5.932;2023-07-08T00:15:25;101893.22;;;17.01;88.53
74529;BME280;63009;52.584;5.932;2023-07-08T00:17:50;101900.59;;;16.97;88.61
74529;BME280;63009;52.584;5.932;2023-07-08T00:20:20;101887.16;;;16.99;88.59
74529;BME280;63009;52.584;5.932;2023-07-08T00:22:46;101893.66;;;16.95;88.65
74529;BME280;63009;52.584;5.932;2023-07-08T00:25:13;101887.59;;;16.92;89.00
74529;BME280;63009;52.584;5.932;2023-07-08T00:27:40;101875.81;;;16.82;88.69
74529;BME280;63009;52.584;5.932;2023-07-08T00:30:22;101888.84;;;16.87;88.47
74529;BME280;63009;52.584;5.932;2023-07-08T00:32:47;101894.19;;;16.87;88.81
74529;BME280;63009;52.584;5.932;2023-07-08T00:35:18;101890.66;;;16.86;89.07
74529;BME280;63009;52.584;5.932;2023-07-08T00:37:44;101876.88;;;16.80;88.73
74529;BME280;63009;52.584;5.932;2023-07-08T00:40:17;101882.75;;;16.85;88.77
74529;BME280;63009;52.584;5.932;2023-07-08T00:42:44;101881.56;;;16.76;88.80
74529;BME280;63009;52.584;5.932;2023-07-08T00:45:32;101885.22;;;16.75;88.95
74529;BME280;63009;52.584;5.932;2023-07-08T00:48:16;101874.94;;;16.69;89.51
74529;BME280;63009;52.584;5.932;2023-07-08T00:50:43;101881.13;;;16.70;89.15
74529;BME280;63009;52.584;5.932;2023-07-08T00:53:30;101883.03;;;16.68;89.08
74529;BME280;63009;52.584;5.932;2023-07-08T00:56:06;101887.41;;;16.69;89.07
74529;BME280;63009;52.584;5.932;2023-07-08T00:58:38;101871.81;;;16.62;89.35
74529;BME280;63009;52.584;5.932;2023-07-08T01:01:06;101870.38;;;16.57;89.58
74529;BME280;63009;52.584;5.932;2023-07-08T01:03:47;101868.78;;;16.54;89.67
74529;BME280;63009;52.584;5.932;2023-07-08T01:06:14;101863.44;;;16.54;89.61
74529;BME280;63009;52.584;5.932;2023-07-08T01:08:40;101863.75;;;16.50;89.65
74529;BME280;63009;52.584;5.932;2023-07-08T01:11:05;101851.75;;;16.43;89.64
74529;BME280;63009;52.584;5.932;2023-07-08T01:13:35;101856.50;;;16.52;89.15
74529;BME280;63009;52.584;5.932;2023-07-08T01:16:02;101862.25;;;16.58;88.96
74529;BME280;63009;52.584;5.932;2023-07-08T01:18:28;101838.22;;;16.46;88.85
74529;BME280;63009;52.584;5.932;2023-07-08T01:20:54;101848.38;;;16.53;88.50
74529;BME280;63009;52.584;5.932;2023-07-08T01:23:22;101844.84;;;16.53;88.56
74529;BME280;63009;52.584;5.932;2023-07-08T01:25:48;101851.16;;;16.52;88.35
74529;BME280;63009;52.584;5.932;2023-07-08T01:28:15;101849.59;;;16.62;87.74
74529;BME280;63009;52.584;5.932;2023-07-08T01:30:44;101848.81;;;16.60;88.02
74529;BME280;63009;52.584;5.932;2023-07-08T01:33:17;101846.91;;;16.62;87.57
74529;BME280;63009;52.584;5.932;2023-07-08T01:35:45;101845.22;;;16.61;87.11
74529;BME280;63009;52.584;5.932;2023-07-08T01:38:12;101845.00;;;16.64;86.93
74529;BME280;63009;52.584;5.932;2023-07-08T01:40:48;101846.91;;;16.62;87.22
74529;BME280;63009;52.584;5.932;2023-07-08T01:43:13;101846.53;;;16.68;86.93
74529;BME280;63009;52.584;5.932;2023-07-08T01:45:40;101838.69;;;16.65;86.82
74529;BME280;63009;52.584;5.932;2023-07-08T01:48:17;101840.72;;;16.61;87.14
74529;BME280;63009;52.584;5.932;2023-07-08T01:51:01;101829.94;;;16.63;86.88
74529;BME280;63009;52.584;5.932;2023-07-08T01:53:54;101834.72;;;16.58;86.91
74529;BME280;63009;52.584;5.932;2023-07-08T01:56:19;101823.50;;;16.53;87.00
74529;BME280;63009;52.584;5.932;2023-07-08T01:58:44;101824.69;;;16.49;87.43
74529;BME280;63009;52.584;5.932;2023-07-08T02:01:10;101824.22;;;16.42;87.66
74529;BME280;63009;52.584;5.932;2023-07-08T02:03:36;101827.63;;;16.44;88.09
74529;BME280;63009;52.584;5.932;2023-07-08T02:06:02;101815.69;;;16.37;88.05
74529;BME280;63009;52.584;5.932;2023-07-08T02:08:28;101814.84;;;16.37;87.64
74529;BME280;63009;52.584;5.932;2023-07-08T02:10:57;101816.66;;;16.36;87.65
74529;BME280;63009;52.584;5.932;2023-07-08T02:13:24;101809.03;;;16.30;88.03
74529;BME280;63009;52.584;5.932;2023-07-08T02:15:49;101802.00;;;16.29;87.85
74529;BME280;63009;52.584;5.932;2023-07-08T02:18:15;101806.19;;;16.33;87.36
74529;BME280;63009;52.584;5.932;2023-07-08T02:20:42;101813.41;;;16.31;87.68
74529;BME280;63009;52.584;5.932;2023-07-08T02:23:07;101816.94;;;16.31;87.59
74529;BME280;63009;52.584;5.932;2023-07-08T02:25:33;101816.28;;;16.28;87.81
74529;BME280;63009;52.584;5.932;2023-07-08T02:27:58;101804.44;;;16.19;88.50
74529;BME280;63009;52.584;5.932;2023-07-08T02:30:24;101811.88;;;16.14;88.76
74529;BME280;63009;52.584;5.932;2023-07-08T02:32:49;101799.41;;;16.15;88.62
74529;BME280;63009;52.584;5.932;2023-07-08T02:35:23;101784.19;;;16.02;88.92
74529;BME280;63009;52.584;5.932;2023-07-08T02:37:48;101787.19;;;15.98;89.79
74529;BME280;63009;52.584;5.932;2023-07-08T02:40:13;101788.25;;;15.95;89.42
74529;BME280;63009;52.584;5.932;2023-07-08T02:42:39;101784.94;;;15.92;89.66
74529;BME280;63009;52.584;5.932;2023-07-08T02:45:05;101774.06;;;15.95;89.54
74529;BME280;63009;52.584;5.932;2023-07-08T02:47:30;101774.06;;;15.95;89.35
74529;BME280;63009;52.584;5.932;2023-07-08T02:49:55;101763.94;;;16.00;88.87
74529;BME280;63009;52.584;5.932;2023-07-08T02:52:21;101771.94;;;16.00;89.32
74529;BME280;63009;52.584;5.932;2023-07-08T02:54:46;101764.13;;;15.97;89.51
74529;BME280;63009;52.584;5.932;2023-07-08T02:57:11;101754.06;;;15.88;89.55
74529;BME280;63009;52.584;5.932;2023-07-08T02:59:36;101763.28;;;15.96;89.00
74529;BME280;63009;52.584;5.932;2023-07-08T03:02:02;101759.97;;;15.93;89.12
74529;BME280;63009;52.584;5.932;2023-07-08T03:04:27;101755.41;;;15.95;89.39
74529;BME280;63009;52.584;5.932;2023-07-08T03:06:53;101755.19;;;15.98;88.62
74529;BME280;63009;52.584;5.932;2023-07-08T03:09:18;101749.41;;;15.91;88.56
74529;BME280;63009;52.584;5.932;2023-07-08T03:11:43;101743.31;;;15.89;88.99
74529;BME280;63009;52.584;5.932;2023-07-08T03:14:09;101756.47;;;15.92;88.93
74529;BME280;63009;52.584;5.932;2023-07-08T03:16:34;101757.69;;;15.87;89.09
74529;BME280;63009;52.584;5.932;2023-07-08T03:19:00;101747.56;;;15.79;89.98
74529;BME280;63009;52.584;5.932;2023-07-08T03:21:25;101756.63;;;15.77;90.26
74529;BME280;63009;52.584;5.932;2023-07-08T03:23:51;101762.59;;;15.80;89.89
74529;BME280;63009;52.584;5.932;2023-07-08T03:26:21;101761.47;;;15.70;90.37
74529;BME280;63009;52.584;5.932;2023-07-08T03:28:48;101759.31;;;15.62;91.20
74529;BME280;63009;52.584;5.932;2023-07-08T03:31:13;101758.16;;;15.52;92.17
74529;BME280;63009;52.584;5.932;2023-07-08T03:33:38;101763.03;;;15.45;92.46
74529;BME280;63009;52.584;5.932;2023-07-08T03:36:10;101765.03;;;15.42;92.52
74529;BME280;63009;52.584;5.932;2023-07-08T03:38:37;101763.91;;;15.32;93.02
74529;BME280;63009;52.584;5.932;2023-07-08T03:41:02;101771.63;;;15.36;93.11
74529;BME280;63009;52.584;5.932;2023-07-08T03:43:28;101765.72;;;15.31;93.53
74529;BME280;63009;52.584;5.932;2023-07-08T03:45:53;101756.50;;;15.23;93.66
74529;BME280;63009;52.584;5.932;2023-07-08T03:48:18;101761.75;;;15.24;93.93
74529;BME280;63009;52.584;5.932;2023-07-08T03:50:44;101760.78;;;15.25;93.85
74529;BME280;63009;52.584;5.932;2023-07-08T03:53:09;101760.97;;;15.22;93.65
74529;BME280;63009;52.584;5.932;2023-07-08T03:55:34;101760.13;;;15.22;93.99
74529;BME280;63009;52.584;5.932;2023-07-08T03:58:00;101766.31;;;15.22;93.99
74529;BME280;63009;52.584;5.932;2023-07-08T04:00:25;101761.63;;;15.26;93.79
74529;BME280;63009;52.584;5.932;2023-07-08T04:02:50;101768.56;;;15.28;93.29
74529;BME280;63009;52.584;5.932;2023-07-08T04:05:20;101774.09;;;15.25;93.90
74529;BME280;63009;52.584;5.932;2023-07-08T04:07:46;101761.25;;;15.18;94.18
74529;BME280;63009;52.584;5.932;2023-07-08T04:10:12;101779.72;;;15.21;94.57
74529;BME280;63009;52.584;5.932;2023-07-08T04:12:38;101757.09;;;15.13;94.56
74529;BME280;63009;52.584;5.932;2023-07-08T04:15:04;101773.81;;;15.15;95.01
74529;BME280;63009;52.584;5.932;2023-07-08T04:17:29;101772.19;;;15.27;94.55
74529;BME280;63009;52.584;5.932;2023-07-08T04:19:55;101770.88;;;15.20;94.99
74529;BME280;63009;52.584;5.932;2023-07-08T04:22:22;101776.75;;;15.25;94.65
74529;BME280;63009;52.584;5.932;2023-07-08T04:24:47;101772.41;;;15.24;94.99
74529;BME280;63009;52.584;5.932;2023-07-08T04:27:15;101774.00;;;15.27;94.35
74529;BME280;63009;52.584;5.932;2023-07-08T04:29:41;101771.13;;;15.30;94.48
74529;BME280;63009;52.584;5.932;2023-07-08T04:32:07;101777.91;;;15.35;94.21
74529;BME280;63009;52.584;5.932;2023-07-08T04:34:32;101772.66;;;15.34;94.36
74529;BME280;63009;52.584;5.932;2023-07-08T04:36:57;101779.09;;;15.44;93.80
74529;BME280;63009;52.584;5.932;2023-07-08T04:39:23;101781.41;;;15.50;93.63
74529;BME280;63009;52.584;5.932;2023-07-08T04:41:48;101782.06;;;15.54;93.53
74529;BME280;63009;52.584;5.932;2023-07-08T04:44:13;101783.56;;;15.58;93.30
74529;BME280;63009;52.584;5.932;2023-07-08T04:46:51;101780.66;;;15.62;92.73
74529;BME280;63009;52.584;5.932;2023-07-08T04:49:19;101783.75;;;15.69;92.87
74529;BME280;63009;52.584;5.932;2023-07-08T04:51:45;101783.44;;;15.73;92.59
74529;BME280;63009;52.584;5.932;2023-07-08T04:54:11;101780.69;;;15.75;92.33
74529;BME280;63009;52.584;5.932;2023-07-08T04:56:37;101782.66;;;15.86;92.48
74529;BME280;63009;52.584;5.932;2023-07-08T04:59:03;101775.88;;;15.94;91.66
74529;BME280;63009;52.584;5.932;2023-07-08T05:01:29;101765.84;;;15.98;91.61
74529;BME280;63009;52.584;5.932;2023-07-08T05:03:54;101768.66;;;16.09;91.59
74529;BME280;63009;52.584;5.932;2023-07-08T05:06:20;101773.38;;;16.18;90.59
74529;BME280;63009;52.584;5.932;2023-07-08T05:08:45;101773.72;;;16.26;90.73
74529;BME280;63009;52.584;5.932;2023-07-08T05:11:10;101769.69;;;16.33;90.36
74529;BME280;63009;52.584;5.932;2023-07-08T05:13:36;101767.34;;;16.42;89.94
74529;BME280;63009;52.584;5.932;2023-07-08T05:16:01;101764.59;;;16.56;89.44
74529;BME280;63009;52.584;5.932;2023-07-08T05:18:26;101773.66;;;16.66;88.88
74529;BME280;63009;52.584;5.932;2023-07-08T05:20:52;101751.91;;;16.72;88.38
74529;BME280;63009;52.584;5.932;2023-07-08T05:23:20;101762.69;;;16.83;87.89
74529;BME280;63009;52.584;5.932;2023-07-08T05:25:45;101779.91;;;17.05;87.37
74529;BME280;63009;52.584;5.932;2023-07-08T05:28:11;101787.97;;;17.16;87.40
74529;BME280;63009;52.584;5.932;2023-07-08T05:30:36;101777.09;;;17.32;85.82
74529;BME280;63009;52.584;5.932;2023-07-08T05:33:01;101769.97;;;17.43;85.46
74529;BME280;63009;52.584;5.932;2023-07-08T05:35:27;101769.72;;;17.59;83.67
74529;BME280;63009;52.584;5.932;2023-07-08T05:37:52;101772.78;;;17.78;83.89
74529;BME280;63009;52.584;5.932;2023-07-08T05:40:17;101765.09;;;17.98;83.28
74529;BME280;63009;52.584;5.932;2023-07-08T05:42:43;101756.28;;;18.08;82.31
74529;BME280;63009;52.584;5.932;2023-07-08T05:45:08;101770.78;;;18.17;82.18
74529;BME280;63009;52.584;5.932;2023-07-08T05:47:36;101773.88;;;18.35;80.42
74529;BME280;63009;52.584;5.932;2023-07-08T05:50:01;101769.53;;;18.45;79.85
74529;BME280;63009;52.584;5.932;2023-07-08T05:52:27;101763.53;;;18.65;79.18
74529;BME280;63009;52.584;5.932;2023-07-08T05:54:52;101771.81;;;18.85;77.56
74529;BME280;63009;52.584;5.932;2023-07-08T05:57:18;101770.00;;;19.08;77.91
74529;BME280;63009;52.584;5.932;2023-07-08T05:59:43;101764.78;;;19.28;76.88
74529;BME280;63009;52.584;5.932;2023-07-08T06:02:10;101762.56;;;19.34;76.68
74529;BME280;63009;52.584;5.932;2023-07-08T06:04:36;101774.75;;;19.71;75.69
74529;BME280;63009;52.584;5.932;2023-07-08T06:07:01;101763.31;;;19.58;75.30
74529;BME280;63009;52.584;5.932;2023-07-08T06:09:26;101773.59;;;19.85;73.92
74529;BME280;63009;52.584;5.932;2023-07-08T06:11:52;101759.44;;;19.83;73.60
74529;BME280;63009;52.584;5.932;2023-07-08T06:14:17;101757.44;;;19.96;72.55
74529;BME280;63009;52.584;5.932;2023-07-08T06:16:42;101743.72;;;20.10;74.09
74529;BME280;63009;52.584;5.932;2023-07-08T06:19:08;101747.47;;;20.40;71.99
74529;BME280;63009;52.584;5.932;2023-07-08T06:21:34;101759.03;;;20.52;70.87
74529;BME280;63009;52.584;5.932;2023-07-08T06:23:59;101746.38;;;20.63;70.59
74529;BME280;63009;52.584;5.932;2023-07-08T06:26:24;101757.28;;;20.92;70.37
74529;BME280;63009;52.584;5.932;2023-07-08T06:28:50;101765.88;;;21.17;68.77
74529;BME280;63009;52.584;5.932;2023-07-08T06:31:15;101758.03;;;21.34;68.44
74529;BME280;63009;52.584;5.932;2023-07-08T06:33:42;101749.84;;;21.36;67.91
74529;BME280;63009;52.584;5.932;2023-07-08T06:36:07;101756.25;;;21.45;66.37
74529;BME280;63009;52.584;5.932;2023-07-08T06:38:33;101754.28;;;21.66;66.86
74529;BME280;63009;52.584;5.932;2023-07-08T06:40:58;101731.91;;;21.66;65.71
74529;BME280;63009;52.584;5.932;2023-07-08T06:43:23;101737.88;;;21.79;64.94
74529;BME280;63009;52.584;5.932;2023-07-08T06:45:49;101733.75;;;21.94;65.90
74529;BME280;63009;52.584;5.932;2023-07-08T06:48:14;101741.31;;;22.10;65.54
74529;BME280;63009;52.584;5.932;2023-07-08T06:50:42;101739.16;;;22.23;63.75
74529;BME280;63009;52.584;5.932;2023-07-08T06:53:08;101737.31;;;22.52;64.64
74529;BME280;63009;52.584;5.932;2023-07-08T06:55:33;101743.50;;;22.63;62.42
74529;BME280;63009;52.584;5.932;2023-07-08T06:57:58;101736.00;;;22.66;61.98
74529;BME280;63009;52.584;5.932;2023-07-08T07:00:24;101745.88;;;22.85;61.54
74529;BME280;63009;52.584;5.932;2023-07-08T07:02:49;101746.34;;;23.08;60.41
74529;BME280;63009;52.584;5.932;2023-07-08T07:05:15;101745.56;;;23.25;59.98
74529;BME280;63009;52.584;5.932;2023-07-08T07:07:40;101750.41;;;23.22;59.24
74529;BME280;63009;52.584;5.932;2023-07-08T07:10:06;101739.91;;;23.46;60.65
74529;BME280;63009;52.584;5.932;2023-07-08T07:12:33;101740.53;;;23.67;57.92
74529;BME280;63009;52.584;5.932;2023-07-08T07:14:59;101753.00;;;23.86;56.83
74529;BME280;63009;52.584;5.932;2023-07-08T07:17:26;101748.69;;;23.76;56.45
74529;BME280;63009;52.584;5.932;2023-07-08T07:19:52;101754.16;;;23.84;56.64
74529;BME280;63009;52.584;5.932;2023-07-08T07:22:18;101750.56;;;23.93;57.72
74529;BME280;63009;52.584;5.932;2023-07-08T07:24:43;101749.56;;;23.94;56.90
74529;BME280;63009;52.584;5.932;2023-07-08T07:27:09;101740.59;;;23.93;55.22
74529;BME280;63009;52.584;5.932;2023-07-08T07:29:46;101750.94;;;23.80;55.49
74529;BME280;63009;52.584;5.932;2023-07-08T07:32:13;101750.00;;;23.89;57.17
74529;BME280;63009;52.584;5.932;2023-07-08T07:34:39;101755.78;;;24.12;55.39
74529;BME280;63009;52.584;5.932;2023-07-08T07:37:06;101753.25;;;24.11;54.80
74529;BME280;63009;52.584;5.932;2023-07-08T07:39:31;101754.88;;;24.21;54.67
74529;BME280;63009;52.584;5.932;2023-07-08T07:41:57;101762.13;;;24.39;55.65
74529;BME280;63009;52.584;5.932;2023-07-08T07:44:22;101754.38;;;24.44;54.97
74529;BME280;63009;52.584;5.932;2023-07-08T07:46:47;101750.00;;;24.69;54.64
74529;BME280;63009;52.584;5.932;2023-07-08T07:49:13;101748.72;;;25.07;56.25
74529;BME280;63009;52.584;5.932;2023-07-08T07:51:38;101747.38;;;24.85;53.75
74529;BME280;63009;52.584;5.932;2023-07-08T07:54:04;101747.06;;;25.14;54.32
74529;BME280;63009;52.584;5.932;2023-07-08T07:56:29;101740.22;;;25.02;54.18
74529;BME280;63009;52.584;5.932;2023-07-08T07:58:54;101742.31;;;25.08;54.25
74529;BME280;63009;52.584;5.932;2023-07-08T08:01:20;101744.19;;;25.15;53.20
74529;BME280;63009;52.584;5.932;2023-07-08T08:03:46;101744.34;;;25.14;53.59
74529;BME280;63009;52.584;5.932;2023-07-08T08:06:11;101734.41;;;25.31;53.92
74529;BME280;63009;52.584;5.932;2023-07-08T08:08:37;101752.59;;;25.55;52.55
74529;BME280;63009;52.584;5.932;2023-07-08T08:11:02;101755.25;;;25.81;52.79
74529;BME280;63009;52.584;5.932;2023-07-08T08:13:27;101740.69;;;25.82;52.00
74529;BME280;63009;52.584;5.932;2023-07-08T08:15:57;101732.41;;;25.99;52.47
74529;BME280;63009;52.584;5.932;2023-07-08T08:18:22;101750.00;;;26.28;51.86
74529;BME280;63009;52.584;5.932;2023-07-08T08:20:50;101741.56;;;26.07;50.84
74529;BME280;63009;52.584;5.932;2023-07-08T08:23:16;101754.94;;;26.24;50.09
74529;BME280;63009;52.584;5.932;2023-07-08T08:25:41;101745.75;;;26.17;50.09
74529;BME280;63009;52.584;5.932;2023-07-08T08:28:06;101744.41;;;26.29;51.62
74529;BME280;63009;52.584;5.932;2023-07-08T08:30:32;101757.28;;;26.27;51.65
74529;BME280;63009;52.584;5.932;2023-07-08T08:32:57;101747.66;;;26.33;52.01
74529;BME280;63009;52.584;5.932;2023-07-08T08:35:23;101747.47;;;26.34;50.59
74529;BME280;63009;52.584;5.932;2023-07-08T08:37:48;101741.22;;;26.50;51.05
74529;BME280;63009;52.584;5.932;2023-07-08T08:40:17;101749.50;;;26.57;50.43
74529;BME280;63009;52.584;5.932;2023-07-08T08:42:46;101739.81;;;26.71;50.62
74529;BME280;63009;52.584;5.932;2023-07-08T08:45:18;101746.19;;;26.94;49.46
74529;BME280;63009;52.584;5.932;2023-07-08T08:47:48;101746.47;;;27.15;50.47
74529;BME280;63009;52.584;5.932;2023-07-08T08:50:34;101741.94;;;27.00;50.32
74529;BME280;63009;52.584;5.932;2023-07-08T08:53:04;101748.31;;;27.23;51.36
74529;BME280;63009;52.584;5.932;2023-07-08T08:55:33;101746.63;;;27.53;49.59
74529;BME280;63009;52.584;5.932;2023-07-08T08:58:11;101744.38;;;27.34;48.55
74529;BME280;63009;52.584;5.932;2023-07-08T09:00:52;101741.97;;;27.39;48.31
74529;BME280;63009;52.584;5.932;2023-07-08T09:05:56;101719.59;;;27.68;50.70
74529;BME280;63009;52.584;5.932;2023-07-08T09:08:30;101727.13;;;28.03;49.61
74529;BME280;63009;52.584;5.932;2023-07-08T09:11:00;101727.13;;;28.03;48.80
74529;BME280;63009;52.584;5.932;2023-07-08T09:13:35;101728.28;;;28.32;48.11
74529;BME280;63009;52.584;5.932;2023-07-08T09:16:44;101731.88;;;28.47;48.47
74529;BME280;63009;52.584;5.932;2023-07-08T09:19:31;101739.38;;;28.60;46.35
74529;BME280;63009;52.584;5.932;2023-07-08T09:22:10;101737.06;;;28.72;45.90
74529;BME280;63009;52.584;5.932;2023-07-08T09:27:08;101746.38;;;28.39;46.85
74529;BME280;63009;52.584;5.932;2023-07-08T09:29:34;101730.72;;;28.42;47.71
74529;BME280;63009;52.584;5.932;2023-07-08T09:32:11;101740.97;;;28.54;47.37
74529;BME280;63009;52.584;5.932;2023-07-08T09:34:43;101734.88;;;28.52;47.17
74529;BME280;63009;52.584;5.932;2023-07-08T09:37:25;101734.00;;;28.89;46.62
74529;BME280;63009;52.584;5.932;2023-07-08T09:39:52;101733.66;;;28.84;47.48
74529;BME280;63009;52.584;5.932;2023-07-08T09:42:18;101744.84;;;29.19;46.72
74529;BME280;63009;52.584;5.932;2023-07-08T09:44:45;101740.69;;;29.38;47.43
74529;BME280;63009;52.584;5.932;2023-07-08T09:47:33;101736.13;;;29.09;45.42
74529;BME280;63009;52.584;5.932;2023-07-08T09:50:00;101739.69;;;29.09;45.89
74529;BME280;63009;52.584;5.932;2023-07-08T09:52:26;101731.53;;;29.09;45.95
74529;BME280;63009;52.584;5.932;2023-07-08T09:54:54;101727.13;;;29.08;46.82
74529;BME280;63009;52.584;5.932;2023-07-08T09:57:30;101734.56;;;29.50;48.04
74529;BME280;63009;52.584;5.932;2023-07-08T10:00:01;101725.03;;;29.10;45.01
74529;BME280;63009;52.584;5.932;2023-07-08T10:02:37;101738.44;;;29.26;46.07
74529;BME280;63009;52.584;5.932;2023-07-08T10:07:52;101731.81;;;29.14;47.06
74529;BME280;63009;52.584;5.932;2023-07-08T10:10:24;101733.22;;;29.10;46.42
74529;BME280;63009;52.584;5.932;2023-07-08T10:13:15;101727.75;;;29.25;46.21
74529;BME280;63009;52.584;5.932;2023-07-08T10:15:57;101721.16;;;29.49;45.53
74529;BME280;63009;52.584;5.932;2023-07-08T10:18:29;101728.88;;;29.67;46.12
74529;BME280;63009;52.584;5.932;2023-07-08T10:29:14;101739.22;;;29.71;44.42
74529;BME280;63009;52.584;5.932;2023-07-08T10:32:21;101742.53;;;29.88;43.75
74529;BME280;63009;52.584;5.932;2023-07-08T10:48:35;101729.34;;;30.62;42.10
74529;BME280;63009;52.584;5.932;2023-07-08T10:51:52;101729.00;;;30.72;41.98
74529;BME280;63009;52.584;5.932;2023-07-08T10:57:35;101728.44;;;30.55;42.69
74529;BME280;63009;52.584;5.932;2023-07-08T11:00:27;101719.44;;;30.61;43.36
74529;BME280;63009;52.584;5.932;2023-07-08T11:05:42;101720.59;;;31.15;43.75
74529;BME280;63009;52.584;5.932;2023-07-08T11:08:18;101727.78;;;31.22;42.14
74529;BME280;63009;52.584;5.932;2023-07-08T11:11:11;101723.75;;;31.12;42.36
74529;BME280;63009;52.584;5.932;2023-07-08T11:13:45;101728.53;;;31.10;42.56
74529;BME280;63009;52.584;5.932;2023-07-08T11:16:17;101722.88;;;31.05;41.81
74529;BME280;63009;52.584;5.932;2023-07-08T11:18:54;101723.84;;;31.25;44.01
74529;BME280;63009;52.584;5.932;2023-07-08T11:21:39;101718.13;;;31.20;42.39
74529;BME280;63009;52.584;5.932;2023-07-08T11:26:55;101719.91;;;31.41;41.60
74529;BME280;63009;52.584;5.932;2023-07-08T11:29:26;101701.16;;;31.38;41.00
74529;BME280;63009;52.584;5.932;2023-07-08T11:31:55;101709.84;;;31.54;42.05
74529;BME280;63009;52.584;5.932;2023-07-08T11:34:21;101696.34;;;31.46;40.84
74529;BME280;63009;52.584;5.932;2023-07-08T11:36:48;101685.97;;;31.22;42.42
74529;BME280;63009;52.584;5.932;2023-07-08T11:39:32;101703.84;;;31.24;44.73
74529;BME280;63009;52.584;5.932;2023-07-08T11:44:43;101695.59;;;31.79;43.80
74529;BME280;63009;52.584;5.932;2023-07-08T11:47:26;101677.94;;;31.88;40.11
74529;BME280;63009;52.584;5.932;2023-07-08T11:49:57;101695.63;;;32.25;40.82
74529;BME280;63009;52.584;5.932;2023-07-08T11:52:23;101687.63;;;32.10;40.50
74529;BME280;63009;52.584;5.932;2023-07-08T11:54:56;101699.84;;;32.14;41.05
74529;BME280;63009;52.584;5.932;2023-07-08T11:57:28;101688.88;;;32.08;38.21
74529;BME280;63009;52.584;5.932;2023-07-08T12:00:15;101694.34;;;32.14;38.41
74529;BME280;63009;52.584;5.932;2023-07-08T12:02:53;101701.94;;;32.19;39.18
74529;BME280;63009;52.584;5.932;2023-07-08T12:05:35;101690.56;;;32.35;37.67
74529;BME280;63009;52.584;5.932;2023-07-08T12:08:03;101698.75;;;32.48;39.10
74529;BME280;63009;52.584;5.932;2023-07-08T12:10:56;101681.53;;;32.28;38.82
74529;BME280;63009;52.584;5.932;2023-07-08T12:13:23;101693.50;;;32.54;37.11
74529;BME280;63009;52.584;5.932;2023-07-08T12:15:49;101685.06;;;32.48;37.66
74529;BME280;63009;52.584;5.932;2023-07-08T12:18:19;101687.81;;;32.48;37.39
74529;BME280;63009;52.584;5.932;2023-07-08T12:20:50;101667.19;;;32.53;36.40
74529;BME280;63009;52.584;5.932;2023-07-08T12:23:22;101687.56;;;32.70;37.40
74529;BME280;63009;52.584;5.932;2023-07-08T12:25:48;101682.53;;;32.67;34.10
74529;BME280;63009;52.584;5.932;2023-07-08T12:28:16;101676.88;;;32.55;34.37
74529;BME280;63009;52.584;5.932;2023-07-08T12:30:43;101671.94;;;32.77;35.29
74529;BME280;63009;52.584;5.932;2023-07-08T12:33:15;101668.13;;;32.98;37.00
74529;BME280;63009;52.584;5.932;2023-07-08T12:35:42;101670.44;;;32.94;34.90
74529;BME280;63009;52.584;5.932;2023-07-08T12:38:21;101674.22;;;33.00;35.16
74529;BME280;63009;52.584;5.932;2023-07-08T12:40:50;101676.19;;;32.73;34.32
74529;BME280;63009;52.584;5.932;2023-07-08T12:43:16;101670.06;;;32.84;34.90
74529;BME280;63009;52.584;5.932;2023-07-08T12:45:42;101677.41;;;32.90;33.93
74529;BME280;63009;52.584;5.932;2023-07-08T12:48:08;101663.72;;;32.77;34.40
74529;BME280;63009;52.584;5.932;2023-07-08T12:50:34;101672.16;;;32.89;34.46
74529;BME280;63009;52.584;5.932;2023-07-08T12:52:59;101673.75;;;33.10;35.01
74529;BME280;63009;52.584;5.932;2023-07-08T12:55:28;101676.66;;;33.15;33.34
74529;BME280;63009;52.584;5.932;2023-07-08T12:57:54;101673.03;;;33.27;33.64
74529;BME280;63009;52.584;5.932;2023-07-08T13:00:29;101669.53;;;33.07;34.10
74529;BME280;63009;52.584;5.932;2023-07-08T13:03:00;101672.47;;;33.12;32.24
74529;BME280;63009;52.584;5.932;2023-07-08T13:05:27;101673.97;;;33.08;33.36
74529;BME280;63009;52.584;5.932;2023-07-08T13:07:54;101664.88;;;33.07;34.21
74529;BME280;63009;52.584;5.932;2023-07-08T13:10:23;101669.91;;;33.17;34.17
74529;BME280;63009;52.584;5.932;2023-07-08T13:12:54;101663.19;;;33.13;35.28
74529;BME280;63009;52.584;5.932;2023-07-08T13:15:23;101662.63;;;32.98;34.55
74529;BME280;63009;52.584;5.932;2023-07-08T13:17:50;101660.28;;;33.01;35.09
74529;BME280;63009;52.584;5.932;2023-07-08T13:20:17;101657.34;;;33.03;35.40
74529;BME280;63009;52.584;5.932;2023-07-08T13:22:45;101650.56;;;33.05;33.00
74529;BME280;63009;52.584;5.932;2023-07-08T13:25:17;101659.22;;;33.09;33.56
74529;BME280;63009;52.584;5.932;2023-07-08T13:27:55;101649.16;;;33.34;33.53
74529;BME280;63009;52.584;5.932;2023-07-08T13:30:21;101640.31;;;33.32;34.51
74529;BME280;63009;52.584;5.932;2023-07-08T13:32:52;101652.31;;;33.31;32.37
74529;BME280;63009;52.584;5.932;2023-07-08T13:35:34;101659.94;;;33.29;34.11
74529;BME280;63009;52.584;5.932;2023-07-08T13:38:01;101663.19;;;33.13;34.40
74529;BME280;63009;52.584;5.932;2023-07-08T13:40:28;101657.25;;;33.16;33.96